Time;durP1;ratioP1;P1;durP2;ratioP2;P2;SDS_P1;SDS_P2;PMS_P1;PMS_P2;Temp;Humidity;BMP_temperature;BMP_pressure;BME280_temperature;BME280_humidity;BME280_pressure;Samples;Min_cycle;Max_cycle;Signal;HPM_P1;HPM_P2
2022/07/28 00:00:09;;;;;;;2.22;0.60;;;;;;;14.73;89.17;102142.66;5069994;28;20557;-31
2022/07/28 00:02:38;;;;;;;2.67;0.75;;;;;;;14.72;89.08;102132.56;5071563;28;20399;-30
2022/07/28 00:05:07;;;;;;;2.10;0.57;;;;;;;14.72;89.29;102132.56;5060733;28;20044;-31
2022/07/28 00:07:35;;;;;;;2.13;0.50;;;;;;;14.71;89.34;102139.31;5070316;28;20044;-31
2022/07/28 00:10:03;;;;;;;1.80;0.60;;;;;;;14.71;89.55;102135.66;5071637;28;20401;-33
2022/07/28 00:12:31;;;;;;;2.22;0.60;;;;;;;14.69;89.64;102137.91;5071277;28;20482;-33
2022/07/28 00:14:59;;;;;;;1.50;0.47;;;;;;;14.67;89.81;102141.03;5067314;28;20127;-30
2022/07/28 00:17:27;;;;;;;1.20;0.40;;;;;;;14.68;89.80;102133.44;5071450;28;20045;-32
2022/07/28 00:19:56;;;;;;;2.67;0.50;;;;;;;14.66;90.13;102133.72;5071099;28;20048;-32
2022/07/28 00:22:24;;;;;;;1.88;0.50;;;;;;;14.66;89.99;102130.09;5070828;28;20147;-30
2022/07/28 00:24:52;;;;;;;2.00;0.50;;;;;;;14.64;89.92;102130.38;5071129;28;20048;-32
2022/07/28 00:27:20;;;;;;;1.63;0.50;;;;;;;14.64;89.61;102133.19;5071738;28;20036;-35
2022/07/28 00:29:48;;;;;;;1.65;0.60;;;;;;;14.63;89.76;102128.69;5070360;28;20089;-31
2022/07/28 00:32:19;;;;;;;2.47;0.80;;;;;;;14.62;89.65;102124.22;5049977;28;20514;-32
2022/07/28 00:34:47;;;;;;;1.38;0.40;;;;;;;14.60;89.64;102115.22;5065695;28;20464;-29
2022/07/28 00:37:16;;;;;;;9.00;0.60;;;;;;;14.59;89.49;102121.19;5070625;28;20074;-31
2022/07/28 00:39:44;;;;;;;0.73;0.30;;;;;;;14.55;89.77;102125.72;5071057;28;20135;-36
2022/07/28 00:42:12;;;;;;;2.63;0.55;;;;;;;14.52;89.67;102118.69;5070446;28;20055;-32
2022/07/28 00:44:40;;;;;;;2.15;0.50;;;;;;;14.49;89.88;102127.72;5070977;28;20044;-33
2022/07/28 00:47:08;;;;;;;3.22;0.50;;;;;;;14.45;89.93;102119.03;5071007;28;20048;-30
2022/07/28 00:49:36;;;;;;;1.02;0.45;;;;;;;14.42;90.18;102118.78;5069817;28;20048;-34
2022/07/28 00:52:05;;;;;;;1.52;0.60;;;;;;;14.39;90.14;102120.16;5071220;28;20080;-32
2022/07/28 00:54:35;;;;;;;3.75;0.60;;;;;;;14.36;90.03;102111.53;5070724;28;20153;-31
2022/07/28 00:57:03;;;;;;;1.48;0.50;;;;;;;14.34;89.96;102109.00;5070213;28;20074;-31
2022/07/28 00:59:31;;;;;;;1.67;0.60;;;;;;;14.33;90.17;102115.75;5073195;28;20043;-32
2022/07/28 01:02:01;;;;;;;1.27;0.50;;;;;;;14.31;90.33;102117.16;5063811;28;20522;-33
2022/07/28 01:04:30;;;;;;;1.17;0.50;;;;;;;14.28;90.22;102107.38;5073974;28;20054;-33
2022/07/28 01:07:15;;;;;;;2.42;0.65;;;;;;;14.27;90.44;102108.50;5074662;28;20056;-30
2022/07/28 01:09:52;;;;;;;2.58;0.70;;;;;;;14.22;90.72;102113.31;5074577;28;20040;-31
2022/07/28 01:12:30;;;;;;;1.20;0.40;;;;;;;14.18;90.81;102112.25;5062788;28;20131;-29
2022/07/28 01:15:04;;;;;;;1.95;0.55;;;;;;;14.14;90.88;102110.00;5074200;28;20054;-31
2022/07/28 01:17:38;;;;;;;1.60;0.47;;;;;;;14.10;91.07;102106.09;5073942;28;20063;-30
2022/07/28 01:20:11;;;;;;;1.80;0.50;;;;;;;14.08;91.56;102097.13;5074198;28;20052;-33
2022/07/28 01:22:41;;;;;;;1.48;0.60;;;;;;;14.06;91.78;102102.19;5063153;28;20079;-31
2022/07/28 01:25:21;;;;;;;0.80;0.30;;;;;;;14.05;91.56;102102.50;5073661;28;20052;-30
2022/07/28 01:27:57;;;;;;;1.23;0.50;;;;;;;14.01;91.63;102102.22;5063198;28;20045;-32
2022/07/28 01:30:41;;;;;;;2.42;0.50;;;;;;;13.98;92.04;102097.22;5074121;28;20044;-30
2022/07/28 01:33:15;;;;;;;1.45;0.40;;;;;;;13.95;92.26;102095.00;5063485;28;20048;-30
2022/07/28 01:35:47;;;;;;;2.10;0.45;;;;;;;13.92;92.26;102089.97;5074125;28;20033;-33
2022/07/28 01:38:18;;;;;;;1.55;0.40;;;;;;;13.90;92.26;102089.41;5063373;28;20053;-34
2022/07/28 01:40:46;;;;;;;1.40;0.50;;;;;;;13.87;92.31;102090.00;5073775;28;20076;-34
2022/07/28 01:43:21;;;;;;;1.23;0.40;;;;;;;13.85;92.77;102086.66;5073808;28;20125;-33
2022/07/28 01:45:54;;;;;;;1.67;0.40;;;;;;;13.84;92.98;102086.94;5073295;28;20056;-32
2022/07/28 01:48:24;;;;;;;1.08;0.47;;;;;;;13.81;93.24;102079.94;5074033;28;20052;-35
2022/07/28 01:50:55;;;;;;;1.65;0.40;;;;;;;13.81;93.10;102091.16;5073971;28;20375;-34
2022/07/28 01:53:24;;;;;;;1.70;0.50;;;;;;;13.79;93.34;102085.84;5073026;28;20083;-31
2022/07/28 01:55:52;;;;;;;1.40;0.50;;;;;;;13.77;93.43;102078.88;5073444;28;20513;-33
2022/07/28 01:58:23;;;;;;;1.27;0.45;;;;;;;13.75;93.54;102081.13;5073464;28;20052;-34
2022/07/28 02:00:54;;;;;;;1.60;0.47;;;;;;;13.73;93.52;102077.75;5073123;28;20049;-33
2022/07/28 02:03:24;;;;;;;0.95;0.40;;;;;;;13.70;93.61;102076.38;5073364;28;20067;-36
2022/07/28 02:05:55;;;;;;;1.52;0.50;;;;;;;13.67;93.94;102078.91;5073440;28;20399;-39
2022/07/28 02:08:24;;;;;;;2.37;0.70;;;;;;;13.64;93.90;102079.50;5072429;28;20049;-38
2022/07/28 02:13:42;;;;;;;0.80;0.30;;;;;;;13.55;93.90;102070.88;5072441;28;20154;-40
2022/07/28 02:16:14;;;;;;;1.05;0.40;;;;;;;13.54;94.06;102071.16;5073285;28;20142;-33
2022/07/28 02:18:43;;;;;;;1.10;0.40;;;;;;;13.51;94.45;102068.91;5073037;28;20061;-37
2022/07/28 02:21:13;;;;;;;1.27;0.40;;;;;;;13.48;94.62;102075.09;5072297;28;20044;-33
2022/07/28 02:23:43;;;;;;;0.82;0.40;;;;;;;13.44;94.67;102075.69;5073154;28;20055;-37
2022/07/28 02:26:13;;;;;;;1.83;0.50;;;;;;;13.43;94.78;102075.97;5073303;28;20045;-32
2022/07/28 02:28:45;;;;;;;1.88;0.50;;;;;;;13.38;94.68;102065.63;5072313;28;20148;-31
2022/07/28 02:31:19;;;;;;;2.13;0.55;;;;;;;13.36;94.69;102067.06;5072935;28;20136;-35
2022/07/28 02:33:48;;;;;;;2.05;0.40;;;;;;;13.32;94.90;102061.19;5072893;28;20048;-34
2022/07/28 02:36:32;;;;;;;1.13;0.40;;;;;;;13.29;95.00;102067.34;5052214;28;20072;-29
2022/07/28 02:39:05;;;;;;;1.42;0.50;;;;;;;13.28;95.49;102064.84;5068231;28;20052;-31
2022/07/28 02:41:38;;;;;;;0.93;0.45;;;;;;;13.24;95.72;102064.56;5072530;28;20493;-38
2022/07/28 02:44:12;;;;;;;0.70;0.40;;;;;;;13.22;96.17;102061.22;5073097;28;20061;-38
2022/07/28 02:46:44;;;;;;;0.88;0.32;;;;;;;13.22;96.35;102071.59;5072867;28;20059;-31
2022/07/28 02:49:16;;;;;;;1.42;0.40;;;;;;;13.20;96.59;102057.84;5071646;28;20393;-35
2022/07/28 02:51:46;;;;;;;0.90;0.40;;;;;;;13.20;96.86;102057.03;5072637;28;20083;-35
2022/07/28 02:54:16;;;;;;;0.85;0.40;;;;;;;13.19;96.90;102064.59;5072100;28;20045;-39
2022/07/28 02:56:47;;;;;;;1.08;0.38;;;;;;;13.19;97.10;102060.97;5071822;28;20049;-35
2022/07/28 02:59:21;;;;;;;1.65;0.70;;;;;;;13.18;97.49;102059.31;5072506;28;20060;-31
2022/07/28 03:01:51;;;;;;;1.40;0.50;;;;;;;13.17;97.69;102058.47;5072290;28;20492;-31
2022/07/28 03:04:55;;;;;;;1.52;0.50;;;;;;;13.17;97.80;102058.47;5071596;28;20041;-33
2022/07/28 03:07:09;;;;;;;1.05;0.32;;;;;;;13.16;97.68;102056.78;5072396;28;20057;-36
2022/07/28 03:09:39;;;;;;;1.02;0.43;;;;;;;13.17;97.71;102055.66;5072163;28;20052;-37
2022/07/28 03:12:07;;;;;;;2.70;0.50;;;;;;;13.17;97.94;102058.47;5071916;28;20094;-32
2022/07/28 03:14:35;;;;;;;1.15;0.40;;;;;;;13.17;97.94;102057.63;5071939;28;20486;-34
2022/07/28 03:17:05;;;;;;;0.95;0.40;;;;;;;13.19;97.91;102058.97;5071310;28;20040;-36
2022/07/28 03:19:33;;;;;;;0.90;0.30;;;;;;;13.19;97.87;102058.97;5071728;28;20047;-34
2022/07/28 03:22:01;;;;;;;1.42;0.40;;;;;;;13.21;98.30;102064.31;5071089;28;20048;-29
2022/07/28 03:24:33;;;;;;;2.03;0.50;;;;;;;13.21;98.28;102067.94;5071221;28;20058;-35
2022/07/28 03:27:07;;;;;;;1.73;0.40;;;;;;;13.22;98.32;102068.78;5072222;28;20130;-31
2022/07/28 03:29:36;;;;;;;1.30;0.40;;;;;;;13.21;98.59;102073.56;5071550;28;20044;-35
2022/07/28 03:32:06;;;;;;;2.50;0.40;;;;;;;13.22;98.67;102075.22;5070263;28;20511;-37
2022/07/28 03:34:34;;;;;;;1.08;0.50;;;;;;;13.24;98.69;102081.38;5070127;28;20053;-34
2022/07/28 03:37:12;;;;;;;1.15;0.40;;;;;;;13.26;98.86;102083.91;5069831;28;20062;-34
2022/07/28 03:39:47;;;;;;;1.55;0.43;;;;;;;13.28;99.03;102082.50;5070038;28;20050;-33
2022/07/28 03:42:17;;;;;;;1.27;0.40;;;;;;;13.29;98.93;102083.34;5070581;28;20040;-37
2022/07/28 03:44:46;;;;;;;1.38;0.47;;;;;;;13.32;99.03;102088.38;5070787;28;20055;-33
2022/07/28 03:47:20;;;;;;;1.13;0.40;;;;;;;13.35;99.02;102090.59;5070327;28;20049;-28
2022/07/28 03:49:48;;;;;;;1.42;0.40;;;;;;;13.35;99.10;102097.06;5070933;28;20140;-37
2022/07/28 03:52:17;;;;;;;1.13;0.40;;;;;;;13.37;99.17;102092.00;5070400;28;20151;-31
2022/07/28 03:54:45;;;;;;;1.73;0.60;;;;;;;13.39;99.07;102089.72;5070999;28;20136;-32
2022/07/28 03:57:14;;;;;;;1.50;0.40;;;;;;;13.41;99.03;102097.84;5070017;28;20044;-33
2022/07/28 03:59:41;;;;;;;1.35;0.50;;;;;;;13.43;99.37;102095.59;5070596;28;20421;-35
2022/07/28 04:02:09;;;;;;;1.05;0.40;;;;;;;13.44;99.57;102091.66;5069661;28;20410;-36
2022/07/28 04:04:38;;;;;;;1.73;0.43;;;;;;;13.45;99.89;102093.34;5071106;28;20582;-30
2022/07/28 04:07:06;;;;;;;1.58;0.57;;;;;;;13.47;100.00;102090.25;5069912;28;20433;-33
2022/07/28 04:09:34;;;;;;;1.27;0.40;;;;;;;13.48;100.00;102091.94;5071420;28;20435;-30
2022/07/28 04:12:02;;;;;;;2.03;0.68;;;;;;;13.48;100.00;102097.53;5071231;28;20056;-33
2022/07/28 04:14:30;;;;;;;0.93;0.30;;;;;;;13.49;100.00;102093.63;5070824;28;20409;-32
2022/07/28 04:16:57;;;;;;;1.80;0.40;;;;;;;13.51;100.00;102091.34;5071141;28;20497;-35
2022/07/28 04:19:25;;;;;;;1.90;0.50;;;;;;;13.53;100.00;102097.53;5071361;28;20048;-33
2022/07/28 04:21:54;;;;;;;1.80;0.40;;;;;;;13.54;100.00;102093.59;5070375;28;20048;-39
2022/07/28 04:24:22;;;;;;;1.33;0.40;;;;;;;13.55;100.00;102100.88;5071758;28;20110;-35
2022/07/28 04:26:50;;;;;;;1.83;0.60;;;;;;;13.58;100.00;102103.09;5071351;28;20136;-34
2022/07/28 04:29:19;;;;;;;1.25;0.52;;;;;;;13.58;100.00;102098.34;5070645;28;20052;-31
2022/07/28 04:31:53;;;;;;;1.10;0.40;;;;;;;13.62;100.00;102107.00;5071141;28;20041;-35
2022/07/28 04:34:23;;;;;;;1.10;0.40;;;;;;;13.65;100.00;102106.41;5074367;28;20139;-36
2022/07/28 04:36:50;;;;;;;2.10;0.52;;;;;;;13.65;100.00;102098.84;5075262;28;20079;-35
2022/07/28 04:39:20;;;;;;;1.38;0.50;;;;;;;13.69;100.00;102107.50;5075328;28;20045;-35
2022/07/28 04:41:47;;;;;;;1.25;0.40;;;;;;;13.71;100.00;102103.31;5074245;28;20072;-39
2022/07/28 04:44:16;;;;;;;2.22;0.43;;;;;;;13.74;100.00;102094.31;5074801;28;20055;-30
2022/07/28 04:46:44;;;;;;;1.42;0.50;;;;;;;13.77;100.00;102090.91;5074841;28;20480;-33
2022/07/28 04:49:12;;;;;;;2.28;0.50;;;;;;;13.80;100.00;102089.47;5074319;28;20058;-37
2022/07/28 04:51:40;;;;;;;1.50;0.52;;;;;;;13.82;100.00;102090.03;5074797;28;20047;-31
2022/07/28 04:54:08;;;;;;;1.55;0.50;;;;;;;13.87;100.00;102091.97;5073793;28;20048;-34
2022/07/28 04:56:37;;;;;;;3.22;0.68;;;;;;;13.89;100.00;102098.97;5073803;28;20139;-31
2022/07/28 04:59:04;;;;;;;2.75;0.70;;;;;;;13.92;100.00;102091.94;5074675;28;20055;-35
2022/07/28 05:01:33;;;;;;;1.27;0.40;;;;;;;13.95;100.00;102092.19;5074290;28;20067;-37
2022/07/28 05:04:00;;;;;;;1.88;0.63;;;;;;;13.98;100.00;102097.22;5072540;28;20059;-36
2022/07/28 05:06:29;;;;;;;1.73;0.50;;;;;;;14.01;100.00;102090.16;5074725;28;20510;-34
2022/07/28 05:08:56;;;;;;;1.85;0.52;;;;;;;14.04;100.00;102100.81;5074286;28;20056;-38
2022/07/28 05:11:24;;;;;;;1.45;0.52;;;;;;;14.06;100.00;102093.78;5073719;28;20056;-34
2022/07/28 05:13:53;;;;;;;1.70;0.55;;;;;;;14.10;100.00;102094.88;5074045;28;20080;-32
2022/07/28 05:16:21;;;;;;;1.35;0.50;;;;;;;14.14;100.00;102097.94;5073898;28;20044;-38
2022/07/28 05:18:49;;;;;;;1.83;0.57;;;;;;;14.19;100.00;102102.69;5073715;28;20040;-31
2022/07/28 05:21:17;;;;;;;1.98;0.50;;;;;;;14.23;100.00;102101.78;5072502;28;20056;-37
2022/07/28 05:23:49;;;;;;;2.33;0.70;;;;;;;14.28;100.00;102101.75;5071605;28;20036;-33
2022/07/28 05:26:17;;;;;;;2.60;0.60;;;;;;;14.33;100.00;102098.06;5073805;28;20098;-39
2022/07/28 05:28:44;;;;;;;1.10;0.57;;;;;;;14.39;100.00;102102.47;5073870;28;20051;-32
2022/07/28 05:31:14;;;;;;;1.92;0.50;;;;;;;14.44;100.00;102113.72;5073626;28;20235;-30
2022/07/28 05:33:42;;;;;;;1.40;0.40;;;;;;;14.47;100.00;102111.16;5073832;28;20565;-38
2022/07/28 05:36:11;;;;;;;2.28;0.50;;;;;;;14.53;100.00;102105.50;5074126;28;20045;-34
2022/07/28 05:38:39;;;;;;;2.05;0.70;;;;;;;14.57;100.00;102113.03;5073227;28;20053;-34
2022/07/28 05:41:06;;;;;;;2.00;0.70;;;;;;;14.61;100.00;102108.47;5074175;28;20051;-34
2022/07/28 05:43:36;;;;;;;1.65;0.50;;;;;;;14.64;100.00;102107.91;5073344;28;20032;-33
2022/07/28 05:46:04;;;;;;;1.90;0.52;;;;;;;14.66;100.00;102113.22;5071086;28;20409;-34
2022/07/28 05:48:34;;;;;;;1.77;0.60;;;;;;;14.71;100.00;102116.00;5072638;28;20563;-36
2022/07/28 05:51:02;;;;;;;3.80;0.85;;;;;;;14.74;100.00;102116.25;5072738;28;20075;-32
2022/07/28 05:53:30;;;;;;;3.80;0.57;;;;;;;14.78;100.00;102117.31;5072148;28;20044;-34
2022/07/28 05:55:58;;;;;;;3.13;0.60;;;;;;;14.86;100.00;102117.78;5072527;28;20390;-35
2022/07/28 05:58:28;;;;;;;5.10;1.00;;;;;;;14.91;100.00;102126.19;5072793;28;20044;-32
2022/07/28 06:00:58;;;;;;;3.88;0.77;;;;;;;14.97;100.00;102128.66;5072499;28;20048;-32
2022/07/28 06:03:26;;;;;;;3.45;0.70;;;;;;;15.03;100.00;102119.00;5072712;28;20044;-33
2022/07/28 06:05:55;;;;;;;3.58;0.70;;;;;;;15.11;100.00;102126.78;5070247;28;20064;-33
2022/07/28 06:08:41;;;;;;;4.93;0.80;;;;;;;15.19;100.00;102128.09;5052630;28;20401;-33
2022/07/28 06:11:10;;;;;;;3.17;0.80;;;;;;;15.29;100.00;102129.94;5067930;28;20541;-32
2022/07/28 06:13:39;;;;;;;1.77;0.60;;;;;;;15.35;100.00;102131.56;5051838;28;20045;-34
2022/07/28 06:16:07;;;;;;;2.08;0.50;;;;;;;15.45;100.00;102123.81;5071433;28;20056;-33
2022/07/28 06:18:42;;;;;;;1.95;0.60;;;;;;;15.60;100.00;102121.97;5072158;28;20497;-36
2022/07/28 06:21:11;;;;;;;1.70;0.60;;;;;;;15.71;100.00;102120.69;5071516;28;20078;-36
2022/07/28 06:23:39;;;;;;;2.03;0.60;;;;;;;15.85;100.00;102121.63;5071935;28;20155;-37
2022/07/28 06:26:07;;;;;;;2.58;0.70;;;;;;;16.00;99.00;102132.63;5071982;28;20465;-35
2022/07/28 06:28:35;;;;;;;1.85;0.60;;;;;;;16.16;97.78;102127.63;5071385;28;20098;-33
2022/07/28 06:31:03;;;;;;;2.65;0.60;;;;;;;16.33;96.21;102130.72;5071781;28;20120;-38
2022/07/28 06:33:31;;;;;;;2.03;0.60;;;;;;;16.51;95.02;102129.00;5072192;28;20135;-31
2022/07/28 06:35:58;;;;;;;1.92;0.52;;;;;;;16.71;93.33;102137.13;5070252;28;20036;-35
2022/07/28 06:38:27;;;;;;;3.80;0.73;;;;;;;16.88;91.08;102120.44;5072696;28;20055;-31
2022/07/28 06:40:56;;;;;;;3.30;0.80;;;;;;;17.09;89.93;102125.69;5071367;28;20064;-36
2022/07/28 06:43:24;;;;;;;2.28;0.50;;;;;;;17.40;89.20;102121.09;5072556;28;20827;-37
2022/07/28 06:45:52;;;;;;;2.83;0.63;;;;;;;17.77;84.42;102119.19;5071101;28;20087;-31
2022/07/28 06:48:19;;;;;;;1.63;0.50;;;;;;;18.15;82.70;102112.06;5069482;28;20503;-35
2022/07/28 06:50:51;;;;;;;3.17;0.70;;;;;;;18.59;79.68;102116.03;5071606;28;20098;-38
2022/07/28 06:53:19;;;;;;;2.42;0.73;;;;;;;19.03;75.93;102123.63;5072078;28;20514;-38
2022/07/28 06:55:48;;;;;;;1.73;0.50;;;;;;;19.35;71.64;102119.59;5070190;28;20058;-40
2022/07/28 06:58:16;;;;;;;2.47;0.73;;;;;;;19.55;69.09;102126.69;5071392;28;20131;-34
2022/07/28 07:00:44;;;;;;;3.53;0.50;;;;;;;19.89;68.63;102118.22;5071435;28;20151;-31
2022/07/28 07:03:12;;;;;;;1.30;0.40;;;;;;;20.28;66.31;102125.75;5071426;28;20043;-37
2022/07/28 07:05:40;;;;;;;3.35;0.60;;;;;;;20.83;64.15;102121.34;5072938;28;20047;-31
2022/07/28 07:08:08;;;;;;;1.15;0.45;;;;;;;21.03;60.20;102126.28;5071859;28;20057;-31
2022/07/28 07:10:36;;;;;;;2.80;0.70;;;;;;;21.22;61.50;102125.88;5071420;28;20120;-42
2022/07/28 07:13:05;;;;;;;2.92;0.55;;;;;;;21.72;59.63;102119.44;5072249;28;20127;-32
2022/07/28 07:15:32;;;;;;;1.45;0.40;;;;;;;22.25;58.17;102121.56;5072197;28;20094;-32
2022/07/28 07:18:01;;;;;;;2.40;0.50;;;;;;;22.69;55.37;102117.13;5071144;28;20075;-41
2022/07/28 07:20:29;;;;;;;2.83;0.63;;;;;;;23.21;53.56;102122.22;5072044;28;20059;-39
2022/07/28 07:22:57;;;;;;;2.00;0.60;;;;;;;23.60;51.36;102115.00;5070902;28;20482;-35
2022/07/28 07:25:25;;;;;;;3.40;0.50;;;;;;;23.92;50.10;102113.19;5071935;28;20572;-33
2022/07/28 07:27:52;;;;;;;1.48;0.40;;;;;;;24.15;49.71;102114.31;5071985;28;20127;-36
2022/07/28 07:30:21;;;;;;;1.10;0.38;;;;;;;24.32;48.83;102114.03;5071368;28;20052;-33
2022/07/28 07:32:49;;;;;;;2.47;0.50;;;;;;;24.41;47.86;102115.88;5071728;28;20040;-32
2022/07/28 07:35:17;;;;;;;1.40;0.50;;;;;;;24.39;47.17;102108.53;5071664;28;20135;-40
2022/07/28 07:37:45;;;;;;;2.42;0.60;;;;;;;24.38;47.04;102123.97;5070939;28;20070;-32
2022/07/28 07:40:13;;;;;;;2.33;0.50;;;;;;;24.57;46.29;102114.75;5059473;28;20053;-35
2022/07/28 07:42:41;;;;;;;2.53;0.82;;;;;;;24.80;44.36;102114.97;5071621;28;20041;-34
2022/07/28 07:45:09;;;;;;;2.78;0.60;;;;;;;25.02;44.19;102111.53;5070927;28;20044;-32
2022/07/28 07:47:39;;;;;;;1.95;0.40;;;;;;;25.42;43.04;102113.34;5071656;28;20052;-33
2022/07/28 07:50:08;;;;;;;2.25;0.60;;;;;;;25.73;42.43;102107.63;5067956;28;20409;-41
2022/07/28 07:52:36;;;;;;;1.83;0.50;;;;;;;25.54;41.63;102107.56;5071210;28;20155;-37
2022/07/28 07:55:04;;;;;;;2.22;0.50;;;;;;;25.69;41.43;102109.56;5071489;28;20043;-32
2022/07/28 07:57:32;;;;;;;1.67;0.40;;;;;;;25.99;40.32;102103.28;5071678;28;20149;-41
2022/07/28 08:00:00;;;;;;;2.05;0.40;;;;;;;26.23;40.38;102103.00;5070566;28;20048;-32
2022/07/28 08:02:30;;;;;;;1.55;0.50;;;;;;;26.53;39.22;102097.53;5071682;28;20052;-43
2022/07/28 08:05:00;;;;;;;2.65;0.60;;;;;;;26.63;39.43;102096.91;5071079;28;20443;-35
2022/07/28 08:07:28;;;;;;;2.25;0.57;;;;;;;26.92;38.36;102092.56;5050489;28;20072;-34
2022/07/28 08:09:56;;;;;;;1.98;0.50;;;;;;;27.09;38.68;102094.94;5066223;28;20060;-38
2022/07/28 08:12:23;;;;;;;1.50;0.50;;;;;;;27.40;38.72;102093.81;5070669;28;20132;-33
2022/07/28 08:14:52;;;;;;;3.38;0.60;;;;;;;27.73;38.49;102084.53;5071159;28;20098;-39
2022/07/28 08:17:20;;;;;;;1.75;0.50;;;;;;;28.07;38.16;102090.34;5069797;28;20529;-39
2022/07/28 08:19:52;;;;;;;2.60;0.50;;;;;;;28.14;37.66;102093.31;5070686;28;20048;-35
2022/07/28 08:22:22;;;;;;;1.67;0.50;;;;;;;28.20;37.34;102091.75;5071389;28;20087;-35
2022/07/28 08:24:49;;;;;;;2.00;0.52;;;;;;;28.30;36.99;102096.00;5071128;28;20048;-37
2022/07/28 08:27:17;;;;;;;2.25;0.60;;;;;;;28.33;36.78;102095.22;5070568;28;20063;-33
2022/07/28 08:29:45;;;;;;;2.42;0.60;;;;;;;28.20;36.28;102090.94;5070978;28;20041;-36
2022/07/28 08:32:13;;;;;;;2.45;0.60;;;;;;;27.82;36.41;102087.09;5071139;28;20076;-34
2022/07/28 08:34:41;;;;;;;2.58;0.50;;;;;;;27.76;37.38;102088.69;5069093;28;20075;-33
2022/07/28 08:37:09;;;;;;;1.00;0.43;;;;;;;27.94;37.20;102083.19;5060536;28;20526;-33
2022/07/28 08:39:38;;;;;;;1.77;0.50;;;;;;;28.08;36.50;102089.94;5071115;28;20134;-34
2022/07/28 08:42:08;;;;;;;1.20;0.50;;;;;;;28.28;36.42;102082.03;5070323;28;20296;-37
2022/07/28 08:44:45;;;;;;;1.50;0.60;;;;;;;28.54;36.24;102077.41;5071143;28;20122;-42
2022/07/28 08:47:15;;;;;;;1.52;0.50;;;;;;;28.86;35.73;102077.75;5071103;28;21207;-36
2022/07/28 08:49:43;;;;;;;1.67;0.40;;;;;;;29.11;34.99;102078.84;5070640;28;20053;-39
2022/07/28 08:52:13;;;;;;;0.98;0.32;;;;;;;29.09;34.85;102084.97;5067324;28;20405;-39
2022/07/28 08:54:45;;;;;;;1.65;0.50;;;;;;;29.45;34.91;102085.28;5070218;28;20049;-39
2022/07/28 08:57:19;;;;;;;1.70;0.50;;;;;;;29.81;33.78;102081.41;5069759;28;20135;-34
2022/07/28 08:59:49;;;;;;;1.52;0.60;;;;;;;29.89;34.03;102076.53;5071115;28;20060;-33
2022/07/28 09:02:18;;;;;;;1.65;0.50;;;;;;;29.84;33.48;102071.16;5069724;28;20140;-33
2022/07/28 09:04:46;;;;;;;1.10;0.30;;;;;;;29.77;33.69;102079.78;5070688;28;20569;-39
2022/07/28 09:07:14;;;;;;;2.35;0.50;;;;;;;29.74;33.42;102075.66;5070588;28;20468;-45
2022/07/28 09:09:47;;;;;;;4.72;0.55;;;;;;;29.75;33.19;102085.09;5070167;28;20052;-35
2022/07/28 09:12:15;;;;;;;2.38;0.55;;;;;;;29.77;33.10;102077.72;5070563;28;20057;-38
2022/07/28 09:14:43;;;;;;;1.00;0.40;;;;;;;29.92;33.39;102074.91;5070820;28;20047;-41
2022/07/28 09:17:11;;;;;;;1.25;0.38;;;;;;;29.97;32.55;102080.28;5069850;28;20049;-40
2022/07/28 09:19:39;;;;;;;1.60;0.40;;;;;;;29.86;32.90;102073.63;5071557;28;20052;-36
2022/07/28 09:22:07;;;;;;;2.25;0.40;;;;;;;29.88;32.49;102072.00;5074361;28;20074;-40
2022/07/28 09:24:38;;;;;;;3.50;0.50;;;;;;;29.71;32.42;102073.56;5073362;28;20047;-34
2022/07/28 09:27:09;;;;;;;2.13;0.50;;;;;;;29.57;32.81;102067.72;5074488;28;20058;-34
2022/07/28 09:29:38;;;;;;;2.33;0.47;;;;;;;29.65;32.72;102074.34;5073537;28;20124;-43
2022/07/28 09:32:07;;;;;;;1.52;0.55;;;;;;;29.62;33.24;102069.38;5073760;28;20071;-43
2022/07/28 09:34:42;;;;;;;1.10;0.50;;;;;;;29.63;32.47;102068.16;5073878;28;20076;-34
2022/07/28 09:37:18;;;;;;;1.92;0.60;;;;;;;29.72;32.42;102075.22;5073016;28;20090;-34
2022/07/28 09:39:57;;;;;;;1.67;0.50;;;;;;;29.58;32.38;102077.16;5074117;28;20178;-39
2022/07/28 09:42:44;;;;;;;2.22;0.60;;;;;;;29.57;32.66;102084.16;5073847;28;20080;-42
2022/07/28 09:45:12;;;;;;;1.35;0.40;;;;;;;29.45;32.23;102076.66;5073228;28;20079;-36
2022/07/28 09:48:08;;;;;;;2.15;0.50;;;;;;;29.30;32.01;102083.50;5074155;28;20044;-34
2022/07/28 09:50:37;;;;;;;1.52;0.50;;;;;;;29.36;32.09;102081.91;5073232;28;20507;-35
2022/07/28 09:53:21;;;;;;;1.35;0.50;;;;;;;29.45;31.19;102085.28;5073376;28;20116;-36
2022/07/28 09:55:58;;;;;;;1.83;0.60;;;;;;;29.59;31.74;102076.75;5073814;28;20122;-40
2022/07/28 09:58:28;;;;;;;2.00;0.60;;;;;;;29.58;32.06;102082.91;5072782;28;20589;-34
2022/07/28 10:01:07;;;;;;;;;;;;;;;29.38;31.35;102085.19;5074227;28;20055;-38
2022/07/28 10:03:36;;;;;;;2.17;0.30;;;;;;;29.32;32.80;102081.88;5073167;28;19920;-45
2022/07/28 10:06:07;;;;;;;1.77;0.40;;;;;;;29.52;32.84;102070.97;5072835;28;20036;-38
2022/07/28 10:08:41;;;;;;;;;;;;;;;29.61;31.45;102067.72;5073583;28;20079;-38
2022/07/28 10:11:11;;;;;;;1.90;0.40;;;;;;;29.69;31.88;102076.00;5073422;28;20040;-38
2022/07/28 10:14:01;;;;;;;1.55;0.52;;;;;;;29.66;31.62;102071.06;5072340;28;20454;-35
2022/07/28 10:16:31;;;;;;;3.95;0.60;;;;;;;29.54;32.08;102077.16;5071346;28;20048;-34
2022/07/28 10:19:00;;;;;;;2.85;0.70;;;;;;;29.09;32.66;102073.47;5072417;28;20076;-36
2022/07/28 10:21:31;;;;;;;1.73;0.50;;;;;;;29.15;32.92;102071.06;5073222;28;20101;-41
2022/07/28 10:24:04;;;;;;;1.17;0.50;;;;;;;29.25;32.83;102070.31;5072933;28;20075;-40
2022/07/28 10:26:37;;;;;;;3.22;0.57;;;;;;;29.26;32.27;102068.28;5072332;28;20512;-38
2022/07/28 10:29:07;;;;;;;1.17;0.40;;;;;;;29.02;32.74;102064.78;5072957;28;20044;-35
2022/07/28 10:31:45;;;;;;;1.77;0.43;;;;;;;29.07;32.94;102070.16;5072747;28;20058;-41
2022/07/28 10:34:21;;;;;;;1.63;0.68;;;;;;;29.28;33.12;102069.53;5071926;28;20502;-34
2022/07/28 10:36:54;;;;;;;1.27;0.43;;;;;;;29.45;32.45;102060.22;5072933;28;20041;-34
2022/07/28 10:39:25;;;;;;;1.05;0.30;;;;;;;29.42;32.81;102065.94;5072546;28;20452;-33
2022/07/28 10:41:54;;;;;;;2.22;0.57;;;;;;;29.12;32.75;102060.38;5072174;28;20127;-34
2022/07/28 10:44:24;;;;;;;1.55;0.43;;;;;;;28.78;32.92;102062.47;5072328;28;20048;-37
2022/07/28 10:46:52;;;;;;;1.00;0.37;;;;;;;28.27;33.49;102071.75;5072437;28;20074;-34
2022/07/28 10:49:20;;;;;;;1.90;0.50;;;;;;;27.95;34.18;102065.59;5071888;28;20516;-31
2022/07/28 10:51:55;;;;;;;1.35;0.45;;;;;;;27.50;34.68;102065.72;5072727;28;20063;-33
2022/07/28 10:54:49;;;;;;;1.52;0.50;;;;;;;27.02;35.50;102060.41;5071628;28;20413;-32
2022/07/28 10:57:18;;;;;;;1.23;0.40;;;;;;;26.75;36.10;102064.41;5072550;28;20052;-38
2022/07/28 11:00:07;;;;;;;2.08;0.43;;;;;;;26.48;36.24;102065.53;5071996;28;20040;-32
2022/07/28 11:02:49;;;;;;;2.35;0.70;;;;;;;26.24;36.60;102058.88;5071776;28;20044;-40
2022/07/28 11:05:29;;;;;;;1.55;0.38;;;;;;;25.94;37.41;102060.69;5072129;28;20406;-36
2022/07/28 11:07:59;;;;;;;2.28;0.50;;;;;;;25.87;37.99;102071.97;5072163;28;20047;-39
2022/07/28 11:10:29;;;;;;;0.90;0.47;;;;;;;25.90;37.71;102068.38;5072171;28;20049;-32
2022/07/28 11:12:59;;;;;;;2.15;0.60;;;;;;;25.69;38.13;102074.44;5072069;28;20283;-36
2022/07/28 11:15:33;;;;;;;1.38;0.47;;;;;;;25.33;38.45;102070.69;5071246;28;20044;-39
2022/07/28 11:18:06;;;;;;;2.22;0.65;;;;;;;25.14;38.98;102064.91;5072204;28;20044;-31
2022/07/28 11:21:10;;;;;;;1.90;0.50;;;;;;;25.06;39.13;102066.75;5071693;28;20048;-43
2022/07/28 11:23:47;;;;;;;1.30;0.50;;;;;;;24.81;39.25;102055.84;5071104;28;20071;-36
2022/07/28 11:26:37;;;;;;;1.35;0.50;;;;;;;24.75;40.07;102060.19;5071721;28;20045;-31
2022/07/28 11:29:44;;;;;;;1.80;0.50;;;;;;;24.80;39.65;102063.56;5071372;28;20074;-36
2022/07/28 11:32:13;;;;;;;1.77;0.50;;;;;;;24.84;40.09;102052.25;5071761;28;20576;-34
2022/07/28 11:35:08;;;;;;;2.22;0.60;;;;;;;24.85;38.90;102054.75;5071987;28;20055;-36
2022/07/28 11:38:09;;;;;;;2.97;0.68;;;;;;;24.77;38.92;102052.09;5070508;28;20119;-40
2022/07/28 11:40:42;;;;;;;1.80;0.70;;;;;;;24.75;39.77;102055.31;5071920;28;20140;-39
2022/07/28 11:43:33;;;;;;;1.77;0.50;;;;;;;24.77;39.57;102064.34;5070264;28;20386;-35